createdAt,value
2018-08-28T00:01:47.187Z,78.20
2018-08-28T00:04:15.691Z,78.50
2018-08-28T00:06:44.023Z,78.60
2018-08-28T00:09:12.409Z,79.10
2018-08-28T00:11:40.783Z,79.60
2018-08-28T00:14:09.194Z,79.80
2018-08-28T00:16:37.574Z,80.10
2018-08-28T00:19:06.057Z,80.10
2018-08-28T00:21:34.456Z,80.10
2018-08-28T00:24:02.821Z,80.40
2018-08-28T00:26:31.232Z,80.60
2018-08-28T00:29:00.598Z,81.00
2018-08-28T00:31:29.005Z,81.40
2018-08-28T00:33:57.340Z,81.50
2018-08-28T00:36:25.736Z,81.70
2018-08-28T00:38:54.152Z,81.90
2018-08-28T00:41:22.621Z,82.00
2018-08-28T00:43:50.957Z,82.60
2018-08-28T00:46:19.338Z,82.70
2018-08-28T00:48:47.684Z,82.70
2018-08-28T00:51:16.076Z,82.70
2018-08-28T00:53:44.497Z,82.90
2018-08-28T00:56:12.892Z,83.00
2018-08-28T00:58:41.295Z,83.10
2018-08-28T01:01:09.746Z,83.20
2018-08-28T01:03:38.107Z,83.20
2018-08-28T01:06:06.901Z,83.30
2018-08-28T01:08:35.472Z,83.20
2018-08-28T01:11:03.843Z,83.30
2018-08-28T01:13:32.347Z,83.50
2018-08-28T01:16:00.827Z,83.70
2018-08-28T01:18:29.202Z,83.70
2018-08-28T01:20:58.097Z,83.90
2018-08-28T01:23:26.439Z,84.30
2018-08-28T01:25:54.816Z,83.80
2018-08-28T01:28:23.162Z,84.20
2018-08-28T01:30:51.561Z,84.20
2018-08-28T01:33:19.967Z,84.50
2018-08-28T01:35:48.303Z,84.50
2018-08-28T01:38:16.638Z,84.60
2018-08-28T01:40:44.985Z,84.40
2018-08-28T01:43:18.697Z,84.60
2018-08-28T01:45:47.095Z,84.70
2018-08-28T01:48:15.455Z,84.90
2018-08-28T01:50:43.811Z,84.90
2018-08-28T01:53:12.174Z,84.60
2018-08-28T01:55:40.657Z,84.70
2018-08-28T01:58:09.076Z,84.70
2018-08-28T02:00:37.450Z,84.50
2018-08-28T02:03:05.976Z,84.70
2018-08-28T02:05:34.393Z,84.70
2018-08-28T02:08:03.108Z,84.80
2018-08-28T02:10:31.524Z,85.20
2018-08-28T02:12:59.963Z,85.30
2018-08-28T02:15:28.303Z,85.30
2018-08-28T02:17:56.666Z,85.50
2018-08-28T02:20:25.073Z,85.30
2018-08-28T02:22:53.477Z,85.50
2018-08-28T02:25:21.832Z,85.50
2018-08-28T02:27:50.201Z,85.60
2018-08-28T02:30:18.568Z,85.20
2018-08-28T02:32:46.927Z,84.90
2018-08-28T02:35:15.384Z,84.60
2018-08-28T02:37:43.745Z,84.10
2018-08-28T02:40:12.182Z,83.90
2018-08-28T02:42:40.566Z,83.70
2018-08-28T02:45:08.903Z,83.70
2018-08-28T02:47:37.301Z,83.40
2018-08-28T02:50:06.156Z,83.50
2018-08-28T02:52:34.515Z,83.90
2018-08-28T02:55:02.973Z,83.70
2018-08-28T02:57:31.328Z,83.70
2018-08-28T02:59:59.844Z,83.60
2018-08-28T03:02:28.377Z,83.50
2018-08-28T03:04:56.767Z,83.60
2018-08-28T03:07:25.164Z,83.80
2018-08-28T03:09:53.576Z,83.70
2018-08-28T03:12:21.958Z,84.20
2018-08-28T03:14:50.331Z,84.10
2018-08-28T03:17:19.373Z,84.00
2018-08-28T03:19:48.245Z,84.00
2018-08-28T03:22:16.601Z,84.20
2018-08-28T03:24:44.979Z,84.50
2018-08-28T03:27:13.430Z,84.00
2018-08-28T03:29:41.805Z,83.70
2018-08-28T03:32:10.353Z,83.80
2018-08-28T03:34:38.799Z,84.00
2018-08-28T03:37:07.195Z,83.90
2018-08-28T03:39:35.587Z,83.90
2018-08-28T03:42:03.926Z,84.00
2018-08-28T03:44:32.331Z,83.90
2018-08-28T03:47:20.106Z,84.00
2018-08-28T03:49:48.607Z,84.20
2018-08-28T03:52:17.019Z,84.30
2018-08-28T03:54:45.523Z,84.30
2018-08-28T03:57:13.899Z,84.30
2018-08-28T03:59:42.440Z,84.00
2018-08-28T04:02:11.886Z,84.20
2018-08-28T04:04:40.410Z,84.00
2018-08-28T04:07:08.897Z,83.70
2018-08-28T04:09:37.309Z,83.80
2018-08-28T04:12:05.862Z,83.90
2018-08-28T04:14:34.215Z,83.50
2018-08-28T04:17:02.660Z,83.60
2018-08-28T04:19:31.068Z,83.30
2018-08-28T04:21:59.456Z,83.40
2018-08-28T04:24:27.839Z,83.20
2018-08-28T04:26:56.155Z,83.10
2018-08-28T04:29:24.554Z,83.00
2018-08-28T04:31:53.012Z,82.80
2018-08-28T04:34:21.492Z,83.10
2018-08-28T04:36:49.843Z,83.10
2018-08-28T04:39:18.176Z,83.10
2018-08-28T04:41:46.661Z,83.00
2018-08-28T04:44:16.059Z,83.20
2018-08-28T04:46:45.025Z,83.20
2018-08-28T04:49:13.512Z,82.90
2018-08-28T04:51:42.159Z,82.70
2018-08-28T04:54:10.644Z,83.60
2018-08-28T04:56:39.047Z,83.10
2018-08-28T04:59:07.461Z,83.10
2018-08-28T05:01:36.792Z,82.90
2018-08-28T05:04:05.306Z,83.00
2018-08-28T05:06:33.656Z,83.20
2018-08-28T05:09:02.011Z,83.20
2018-08-28T05:11:30.390Z,83.60
2018-08-28T05:13:58.752Z,83.30
2018-08-28T05:16:27.162Z,83.20
2018-08-28T05:18:55.938Z,83.00
2018-08-28T05:21:24.628Z,83.40
2018-08-28T05:23:53.044Z,83.20
2018-08-28T05:26:21.554Z,83.10
2018-08-28T05:28:49.902Z,83.10
2018-08-28T05:31:18.263Z,83.00
2018-08-28T05:33:46.661Z,82.60
2018-08-28T05:36:15.718Z,82.60
2018-08-28T05:38:44.200Z,82.70
2018-08-28T05:41:12.590Z,82.60
2018-08-28T05:43:41.011Z,82.60
2018-08-28T05:46:09.502Z,82.20
2018-08-28T05:48:37.916Z,81.90
2018-08-28T05:51:06.511Z,82.00
2018-08-28T05:53:34.922Z,81.70
2018-08-28T05:56:03.422Z,81.50
2018-08-28T05:58:32.040Z,81.30
2018-08-28T06:01:00.512Z,81.10
2018-08-28T06:03:29.129Z,80.70
2018-08-28T06:05:57.297Z,80.40
2018-08-28T06:08:26.050Z,80.30
2018-08-28T06:10:54.552Z,79.80
2018-08-28T06:13:23.027Z,79.60
2018-08-28T06:15:51.455Z,79.20
2018-08-28T06:18:19.907Z,78.80
2018-08-28T06:20:48.432Z,78.00
2018-08-28T06:23:16.815Z,77.30
2018-08-28T06:25:45.271Z,77.40
2018-08-28T06:28:13.703Z,77.30
2018-08-28T06:30:42.081Z,77.10
2018-08-28T06:33:10.591Z,76.30
2018-08-28T06:35:39.019Z,75.70
2018-08-28T06:38:07.410Z,75.10
2018-08-28T06:40:36.084Z,74.80
2018-08-28T06:43:05.354Z,74.30
2018-08-28T06:45:34.097Z,73.90
2018-08-28T06:48:02.483Z,73.60
2018-08-28T06:50:31.066Z,72.80
2018-08-28T06:52:59.422Z,72.70
2018-08-28T06:55:27.845Z,72.60
2018-08-28T06:57:56.493Z,72.00
2018-08-28T07:00:25.086Z,71.60
2018-08-28T07:02:53.600Z,70.50
2018-08-28T07:05:22.076Z,69.70
2018-08-28T07:07:50.619Z,69.70
2018-08-28T07:10:19.119Z,69.20
2018-08-28T07:12:47.591Z,68.70
2018-08-28T07:15:16.059Z,68.20
2018-08-28T07:17:44.650Z,68.70
2018-08-28T07:20:13.083Z,68.60
2018-08-28T07:22:41.502Z,69.10
2018-08-28T07:25:10.083Z,69.00
2018-08-28T07:27:38.615Z,69.30
2018-08-28T07:30:07.070Z,69.00
2018-08-28T07:32:35.560Z,68.50
2018-08-28T07:35:04.027Z,68.30
2018-08-28T07:37:32.400Z,67.60
2018-08-28T07:40:00.854Z,67.10
2018-08-28T07:42:29.246Z,66.80
2018-08-28T07:44:57.672Z,67.60
2018-08-28T07:47:26.106Z,67.00
2018-08-28T07:49:54.472Z,65.40
2018-08-28T07:52:22.886Z,64.90
2018-08-28T07:54:51.238Z,64.50
2018-08-28T07:57:19.706Z,65.20
2018-08-28T07:59:48.059Z,64.90
2018-08-28T08:02:16.506Z,64.40
2018-08-28T08:04:44.921Z,63.90
2018-08-28T08:07:13.308Z,64.20
2018-08-28T08:09:41.705Z,63.20
2018-08-28T08:12:10.107Z,61.90
2018-08-28T08:14:38.479Z,60.40
2018-08-28T08:17:06.862Z,59.60
2018-08-28T08:19:35.351Z,59.10
2018-08-28T08:22:04.047Z,58.80
2018-08-28T08:24:32.445Z,58.60
2018-08-28T08:27:00.816Z,57.80
2018-08-28T08:29:29.244Z,58.50
2018-08-28T08:31:57.866Z,59.20
2018-08-28T08:34:26.232Z,59.40
2018-08-28T08:36:54.600Z,58.90
2018-08-28T08:39:23.000Z,59.70
2018-08-28T08:41:51.449Z,58.40
2018-08-28T08:44:19.848Z,57.50
2018-08-28T08:46:48.237Z,56.40
2018-08-28T08:49:16.619Z,54.60
2018-08-28T08:51:45.004Z,54.10
2018-08-28T08:54:13.340Z,53.50
2018-08-28T08:56:41.740Z,53.70
2018-08-28T08:59:10.078Z,54.90
2018-08-28T09:01:38.606Z,54.50
2018-08-28T09:04:07.117Z,55.20
2018-08-28T09:06:35.492Z,54.70
2018-08-28T09:09:04.504Z,54.00
2018-08-28T09:11:32.855Z,52.90
2018-08-28T09:14:01.268Z,53.10
2018-08-28T09:16:29.834Z,53.20
2018-08-28T09:18:58.327Z,53.40
2018-08-28T09:21:26.690Z,52.30
2018-08-28T09:23:55.615Z,52.10
2018-08-28T09:26:23.965Z,52.90
2018-08-28T09:28:52.307Z,51.90
2018-08-28T09:31:20.681Z,50.70
2018-08-28T09:33:49.017Z,49.90
2018-08-28T09:36:18.077Z,49.10
2018-08-28T09:38:48.618Z,50.00
2018-08-28T09:41:17.002Z,50.00
2018-08-28T09:43:45.873Z,49.50
2018-08-28T09:46:14.301Z,49.10
2018-08-28T09:48:42.715Z,46.80
2018-08-28T09:51:11.125Z,47.00
2018-08-28T09:53:39.530Z,46.60
2018-08-28T09:56:08.096Z,45.30
2018-08-28T09:58:36.511Z,45.00
2018-08-28T10:01:10.212Z,44.40
2018-08-28T10:03:38.626Z,45.10
2018-08-28T10:06:07.058Z,44.30
2018-08-28T10:08:35.437Z,43.90
2018-08-28T10:11:03.927Z,44.80
2018-08-28T10:13:32.277Z,44.40
2018-08-28T10:16:00.639Z,45.70
2018-08-28T10:18:29.023Z,46.20
2018-08-28T10:20:57.399Z,46.50
2018-08-28T10:23:25.953Z,46.30
2018-08-28T10:25:54.383Z,46.30
2018-08-28T10:28:22.759Z,46.70
2018-08-28T10:30:51.126Z,45.90
2018-08-28T10:33:19.573Z,44.70
2018-08-28T10:35:47.976Z,43.20
2018-08-28T10:38:16.925Z,43.80
2018-08-28T10:40:45.401Z,42.90
2018-08-28T10:43:13.771Z,43.50
2018-08-28T10:45:42.131Z,41.80
2018-08-28T10:48:10.504Z,41.40
2018-08-28T10:50:38.885Z,43.30
2018-08-28T10:53:07.485Z,43.60
2018-08-28T10:55:35.874Z,41.50
2018-08-28T10:58:04.295Z,40.10
2018-08-28T11:00:32.679Z,40.20
2018-08-28T11:03:01.027Z,39.10
2018-08-28T11:05:29.407Z,38.50
2018-08-28T11:07:57.840Z,38.80
2018-08-28T11:10:26.206Z,38.70
2018-08-28T11:12:54.618Z,39.50
2018-08-28T11:15:22.982Z,39.80
2018-08-28T11:17:51.410Z,38.50
2018-08-28T11:20:19.786Z,37.90
2018-08-28T11:22:48.244Z,37.20
2018-08-28T11:25:16.542Z,37.00
2018-08-28T11:27:44.950Z,37.70
2018-08-28T11:30:13.326Z,39.40
2018-08-28T11:32:41.847Z,39.60
2018-08-28T11:35:10.296Z,39.50
2018-08-28T11:37:38.790Z,40.00
2018-08-28T11:40:07.149Z,40.20
2018-08-28T11:42:35.594Z,39.30
2018-08-28T11:45:03.969Z,39.70
2018-08-28T11:47:32.343Z,40.50
2018-08-28T11:50:00.819Z,41.50
2018-08-28T11:52:29.209Z,43.00
2018-08-28T11:54:57.615Z,44.00
2018-08-28T11:57:26.055Z,44.30
2018-08-28T11:59:54.482Z,43.90
2018-08-28T12:02:22.865Z,44.40
2018-08-28T12:04:51.305Z,43.20
2018-08-28T12:07:19.945Z,43.50
2018-08-28T12:09:48.375Z,44.20
2018-08-28T12:12:16.746Z,43.50
2018-08-28T12:14:45.125Z,42.50
2018-08-28T12:17:13.554Z,41.80
2018-08-28T12:19:42.002Z,39.50
2018-08-28T12:22:10.430Z,39.70
2018-08-28T12:24:38.887Z,40.90
2018-08-28T12:27:07.358Z,41.80
2018-08-28T12:29:35.764Z,41.60
2018-08-28T12:32:04.215Z,42.80
2018-08-28T12:34:32.912Z,43.40
2018-08-28T12:37:01.354Z,43.50
2018-08-28T12:39:29.743Z,43.10
2018-08-28T12:41:58.188Z,42.10
2018-08-28T12:44:26.921Z,40.70
2018-08-28T12:46:55.285Z,40.20
2018-08-28T12:49:23.672Z,40.10
2018-08-28T12:51:52.060Z,40.20
2018-08-28T12:54:20.558Z,39.80
2018-08-28T12:56:48.954Z,39.90
2018-08-28T12:59:17.464Z,40.30
2018-08-28T13:01:45.879Z,39.90
2018-08-28T13:04:14.287Z,40.50
2018-08-28T13:06:42.709Z,40.60
2018-08-28T13:09:11.085Z,40.80
2018-08-28T13:11:39.448Z,41.50
2018-08-28T13:14:07.851Z,41.90
2018-08-28T13:16:36.273Z,41.90
2018-08-28T13:19:04.958Z,41.60
2018-08-28T13:21:33.372Z,41.30
2018-08-28T13:24:01.773Z,40.50
2018-08-28T13:26:30.244Z,40.40
2018-08-28T13:28:58.627Z,40.70
2018-08-28T13:31:26.986Z,39.50
2018-08-28T13:33:55.438Z,39.70
2018-08-28T13:36:24.020Z,39.10
2018-08-28T13:38:52.449Z,38.40
2018-08-28T13:41:20.897Z,38.10
2018-08-28T13:43:49.253Z,39.10
2018-08-28T13:46:17.659Z,39.80
2018-08-28T13:48:46.024Z,40.00
2018-08-28T13:51:14.504Z,40.00
2018-08-28T13:53:43.003Z,40.40
2018-08-28T13:56:11.332Z,40.30
2018-08-28T13:58:39.777Z,39.70
2018-08-28T14:01:08.270Z,39.00
2018-08-28T14:03:43.181Z,38.90
2018-08-28T14:06:11.573Z,39.90
2018-08-28T14:08:39.962Z,39.30
2018-08-28T14:11:08.396Z,39.90
2018-08-28T14:13:36.863Z,40.40
2018-08-28T14:16:05.316Z,40.40
2018-08-28T14:18:33.716Z,40.20
2018-08-28T14:21:02.248Z,40.10
2018-08-28T14:23:30.584Z,39.90
2018-08-28T14:25:59.056Z,39.90
2018-08-28T14:28:27.971Z,39.50
2018-08-28T14:30:56.788Z,39.70
2018-08-28T14:33:25.237Z,39.50
2018-08-28T14:35:53.695Z,40.00
2018-08-28T14:38:22.199Z,40.30
2018-08-28T14:40:50.585Z,40.20
2018-08-28T14:43:18.971Z,40.10
2018-08-28T14:45:47.395Z,39.50
2018-08-28T14:48:16.124Z,39.30
2018-08-28T14:50:44.654Z,39.20
2018-08-28T14:53:13.276Z,39.50
2018-08-28T14:55:41.766Z,39.00
2018-08-28T14:58:10.302Z,39.50
2018-08-28T15:00:39.205Z,39.80
2018-08-28T15:03:07.835Z,40.00
2018-08-28T15:05:36.290Z,39.80
2018-08-28T15:08:04.778Z,39.50
2018-08-28T15:10:33.188Z,39.60
2018-08-28T15:13:01.611Z,39.70
2018-08-28T15:15:30.075Z,39.30
2018-08-28T15:17:58.466Z,39.30
2018-08-28T15:20:26.870Z,39.60
2018-08-28T15:22:55.288Z,39.50
2018-08-28T15:25:23.689Z,39.00
2018-08-28T15:27:52.068Z,39.20
2018-08-28T15:30:20.472Z,39.10
2018-08-28T15:32:48.936Z,39.60
2018-08-28T15:35:17.234Z,40.00
2018-08-28T15:37:45.618Z,39.80
2018-08-28T15:40:14.083Z,40.00
2018-08-28T15:42:42.604Z,40.10
2018-08-28T15:45:11.030Z,40.00
2018-08-28T15:47:39.394Z,40.30
2018-08-28T15:50:07.755Z,40.50
2018-08-28T15:52:36.079Z,40.70
2018-08-28T15:55:11.213Z,41.00
2018-08-28T15:57:39.737Z,41.30
2018-08-28T16:00:08.170Z,41.50
2018-08-28T16:02:36.619Z,41.70
2018-08-28T16:05:06.296Z,41.80
2018-08-28T16:07:34.707Z,41.90
2018-08-28T16:10:03.209Z,42.00
2018-08-28T16:12:31.636Z,42.00
2018-08-28T16:15:00.006Z,42.10
2018-08-28T16:17:28.424Z,42.20
2018-08-28T16:19:56.776Z,42.20
2018-08-28T16:22:58.174Z,42.40
2018-08-28T16:25:26.526Z,42.50
2018-08-28T16:27:54.973Z,42.40
2018-08-28T16:30:23.410Z,42.30
2018-08-28T16:32:51.810Z,42.30
2018-08-28T16:35:20.207Z,42.30
2018-08-28T16:37:48.681Z,42.30
2018-08-28T16:40:17.058Z,42.30
2018-08-28T16:42:45.612Z,42.40
2018-08-28T16:45:14.011Z,42.50
2018-08-28T16:47:42.394Z,42.80
2018-08-28T16:50:10.854Z,42.90
2018-08-28T16:52:39.321Z,43.00
2018-08-28T16:55:07.699Z,43.00
2018-08-28T16:57:36.070Z,42.90
2018-08-28T17:00:04.515Z,43.20
2018-08-28T17:02:32.937Z,43.30
2018-08-28T17:05:01.268Z,43.50
2018-08-28T17:07:29.666Z,43.40
2018-08-28T17:09:58.072Z,43.50
2018-08-28T17:12:26.546Z,44.00
2018-08-28T17:14:55.047Z,44.50
2018-08-28T17:17:23.485Z,44.80
2018-08-28T17:19:51.848Z,45.10
2018-08-28T17:22:20.257Z,45.20
2018-08-28T17:24:48.635Z,45.50
2018-08-28T17:27:17.051Z,45.60
2018-08-28T17:29:45.386Z,45.40
2018-08-28T17:32:13.825Z,45.60
2018-08-28T17:34:42.176Z,45.70
2018-08-28T17:37:10.721Z,46.00
2018-08-28T17:39:39.031Z,46.20
2018-08-28T17:42:07.410Z,46.20
2018-08-28T17:44:35.897Z,46.10
2018-08-28T17:47:05.874Z,46.60
2018-08-28T17:49:35.237Z,46.80
2018-08-28T17:52:03.659Z,47.00
2018-08-28T17:54:32.114Z,47.50
2018-08-28T17:57:00.540Z,48.10
2018-08-28T17:59:28.911Z,47.90
2018-08-28T18:01:57.440Z,48.40
2018-08-28T18:04:25.943Z,49.30
2018-08-28T18:06:54.448Z,49.10
2018-08-28T18:09:24.475Z,49.50
2018-08-28T18:11:52.973Z,49.60
2018-08-28T18:14:21.491Z,49.70
2018-08-28T18:16:50.652Z,50.00
2018-08-28T18:19:19.572Z,50.00
2018-08-28T18:21:48.025Z,49.90
2018-08-28T18:24:16.425Z,50.40
2018-08-28T18:26:44.823Z,50.60
2018-08-28T18:29:13.244Z,51.10
2018-08-28T18:31:41.648Z,51.40
2018-08-28T18:34:10.067Z,51.90
2018-08-28T18:36:38.577Z,51.90
2018-08-28T18:39:07.958Z,51.80
2018-08-28T18:41:36.575Z,51.60
2018-08-28T18:44:05.106Z,51.80
2018-08-28T18:46:33.542Z,52.00
2018-08-28T18:49:02.484Z,52.30
2018-08-28T18:51:30.913Z,52.60
2018-08-28T18:53:59.320Z,52.70
2018-08-28T18:56:27.833Z,53.50
2018-08-28T18:58:56.328Z,53.10
2018-08-28T19:01:25.869Z,53.20
2018-08-28T19:03:54.762Z,53.50
2018-08-28T19:06:24.364Z,53.50
2018-08-28T19:08:52.840Z,53.70
2018-08-28T19:11:21.316Z,53.50
2018-08-28T19:13:49.762Z,54.10
2018-08-28T19:16:18.133Z,54.50
2018-08-28T19:18:46.540Z,54.60
2018-08-28T19:21:14.969Z,54.70
2018-08-28T19:23:43.367Z,55.20
2018-08-28T19:26:11.996Z,55.10
2018-08-28T19:28:40.729Z,55.50
2018-08-28T19:31:09.202Z,56.30
2018-08-28T19:33:37.641Z,56.50
2018-08-28T19:36:06.275Z,57.20
2018-08-28T19:38:34.702Z,57.00
2018-08-28T19:41:03.132Z,56.50
2018-08-28T19:43:31.756Z,56.20
2018-08-28T19:46:00.077Z,56.10
2018-08-28T19:48:28.530Z,56.30
2018-08-28T19:50:56.975Z,56.00
2018-08-28T19:53:25.437Z,55.80
2018-08-28T19:55:53.908Z,55.90
2018-08-28T19:58:22.418Z,56.30
2018-08-28T20:00:50.783Z,56.60
2018-08-28T20:03:19.246Z,56.80
2018-08-28T20:05:47.918Z,57.80
2018-08-28T20:08:16.228Z,57.30
2018-08-28T20:10:44.581Z,57.60
2018-08-28T20:13:12.964Z,58.00
2018-08-28T20:15:41.410Z,58.30
2018-08-28T20:18:09.882Z,58.50
2018-08-28T20:20:38.228Z,58.80
2018-08-28T20:23:06.690Z,58.90
2018-08-28T20:25:35.138Z,58.70
2018-08-28T20:28:03.560Z,58.40
2018-08-28T20:30:32.008Z,58.20
2018-08-28T20:33:01.104Z,58.30
2018-08-28T20:35:29.458Z,58.50
2018-08-28T20:37:57.889Z,58.80
2018-08-28T20:40:26.287Z,59.10
2018-08-28T20:42:54.800Z,59.30
2018-08-28T20:45:23.235Z,59.60
2018-08-28T20:47:51.605Z,59.90
2018-08-28T20:50:19.983Z,60.30
2018-08-28T20:52:48.387Z,61.00
2018-08-28T20:55:16.763Z,60.70
2018-08-28T20:57:45.253Z,60.90
2018-08-28T21:00:13.780Z,61.40
2018-08-28T21:02:42.225Z,61.70
2018-08-28T21:05:10.818Z,61.80
2018-08-28T21:07:39.228Z,61.90
2018-08-28T21:10:07.750Z,61.60
2018-08-28T21:12:36.181Z,61.90
2018-08-28T21:15:04.637Z,62.10
2018-08-28T21:17:33.020Z,62.10
2018-08-28T21:20:01.439Z,62.00
2018-08-28T21:22:29.857Z,62.00
2018-08-28T21:24:58.300Z,62.00
2018-08-28T21:27:26.681Z,62.10
2018-08-28T21:29:55.106Z,62.30
2018-08-28T21:32:23.614Z,62.50
2018-08-28T21:34:52.036Z,62.70
2018-08-28T21:37:20.579Z,62.90
2018-08-28T21:39:49.063Z,63.10
2018-08-28T21:42:17.482Z,63.10
2018-08-28T21:44:45.889Z,63.20
2018-08-28T21:47:14.319Z,63.60
2018-08-28T21:49:49.584Z,63.40
2018-08-28T21:52:17.919Z,63.50
2018-08-28T21:54:46.421Z,64.10
2018-08-28T21:57:14.825Z,63.80
2018-08-28T21:59:43.209Z,63.70
2018-08-28T22:02:11.675Z,63.70
2018-08-28T22:04:40.107Z,63.90
2018-08-28T22:07:13.979Z,64.20
2018-08-28T22:09:42.354Z,64.10
2018-08-28T22:12:10.791Z,64.40
2018-08-28T22:14:39.183Z,64.30
2018-08-28T22:17:07.682Z,64.50
2018-08-28T22:19:36.078Z,64.80
2018-08-28T22:22:04.481Z,65.00
2018-08-28T22:24:32.986Z,65.40
2018-08-28T22:27:01.361Z,66.00
2018-08-28T22:29:29.803Z,65.70
2018-08-28T22:31:58.175Z,66.20
2018-08-28T22:34:26.629Z,66.80
2018-08-28T22:36:55.034Z,66.80
2018-08-28T22:39:23.469Z,66.20
2018-08-28T22:41:51.993Z,66.30
2018-08-28T22:44:20.534Z,66.50
2018-08-28T22:46:48.919Z,66.20
2018-08-28T22:49:17.302Z,66.30
2018-08-28T22:51:45.685Z,66.70
2018-08-28T22:54:14.237Z,67.20
2018-08-28T22:56:42.584Z,67.00
2018-08-28T22:59:10.958Z,67.10
2018-08-28T23:01:39.477Z,67.10
2018-08-28T23:04:07.884Z,67.20
2018-08-28T23:06:36.287Z,67.10
2018-08-28T23:09:06.588Z,67.60
2018-08-28T23:11:35.060Z,67.40
2018-08-28T23:14:03.899Z,67.40
2018-08-28T23:16:32.314Z,67.30
2018-08-28T23:19:01.353Z,67.70
2018-08-28T23:21:29.816Z,67.90
2018-08-28T23:23:58.214Z,67.90
2018-08-28T23:26:26.670Z,67.80
2018-08-28T23:28:55.102Z,68.60
2018-08-28T23:31:23.507Z,67.90
2018-08-28T23:33:51.912Z,68.20
2018-08-28T23:36:20.288Z,68.50
2018-08-28T23:38:55.164Z,68.40
2018-08-28T23:41:23.571Z,68.60
2018-08-28T23:43:51.942Z,69.20
2018-08-28T23:46:20.359Z,69.30
2018-08-28T23:48:48.837Z,71.00
2018-08-28T23:51:17.195Z,70.60
2018-08-28T23:53:45.662Z,70.50
2018-08-28T23:56:14.063Z,71.10
2018-08-28T23:58:42.590Z,72.10
